sensor_id;sensor_type;location;lat;lon;timestamp;P1;durP1;ratioP1;P2;durP2;ratioP2
13244;SDS011;6689;53.400;12.486;2022-09-17T00:01:38;11.77;;;4.43;;
13244;SDS011;6689;53.400;12.486;2022-09-17T00:04:06;13.77;;;4.00;;
13244;SDS011;6689;53.400;12.486;2022-09-17T00:06:36;10.73;;;4.57;;
13244;SDS011;6689;53.400;12.486;2022-09-17T00:09:04;11.23;;;4.10;;
13244;SDS011;6689;53.400;12.486;2022-09-17T00:11:35;12.80;;;4.40;;
13244;SDS011;6689;53.400;12.486;2022-09-17T00:14:07;11.85;;;4.25;;
13244;SDS011;6689;53.400;12.486;2022-09-17T00:16:39;16.63;;;4.75;;
13244;SDS011;6689;53.400;12.486;2022-09-17T00:19:09;10.80;;;3.97;;
13244;SDS011;6689;53.400;12.486;2022-09-17T00:21:41;13.52;;;4.65;;
13244;SDS011;6689;53.400;12.486;2022-09-17T00:24:09;12.13;;;5.28;;
13244;SDS011;6689;53.400;12.486;2022-09-17T00:26:40;17.70;;;4.70;;
13244;SDS011;6689;53.400;12.486;2022-09-17T00:29:07;11.38;;;4.55;;
13244;SDS011;6689;53.400;12.486;2022-09-17T00:31:37;11.98;;;4.97;;
13244;SDS011;6689;53.400;12.486;2022-09-17T00:34:05;10.35;;;4.68;;
13244;SDS011;6689;53.400;12.486;2022-09-17T00:36:33;13.32;;;4.97;;
13244;SDS011;6689;53.400;12.486;2022-09-17T00:39:02;15.73;;;5.25;;
13244;SDS011;6689;53.400;12.486;2022-09-17T00:41:30;17.92;;;5.95;;
13244;SDS011;6689;53.400;12.486;2022-09-17T00:44:37;12.40;;;5.57;;
13244;SDS011;6689;53.400;12.486;2022-09-17T00:47:08;15.55;;;6.13;;
13244;SDS011;6689;53.400;12.486;2022-09-17T00:49:41;13.77;;;5.63;;
13244;SDS011;6689;53.400;12.486;2022-09-17T00:52:13;16.63;;;6.03;;
13244;SDS011;6689;53.400;12.486;2022-09-17T00:54:58;14.40;;;4.80;;
13244;SDS011;6689;53.400;12.486;2022-09-17T00:57:33;13.07;;;5.10;;
13244;SDS011;6689;53.400;12.486;2022-09-17T01:00:07;17.75;;;6.28;;
13244;SDS011;6689;53.400;12.486;2022-09-17T01:02:37;11.52;;;4.80;;
13244;SDS011;6689;53.400;12.486;2022-09-17T01:05:07;14.68;;;5.30;;
13244;SDS011;6689;53.400;12.486;2022-09-17T01:07:45;14.18;;;5.55;;
13244;SDS011;6689;53.400;12.486;2022-09-17T01:10:48;12.02;;;4.63;;
13244;SDS011;6689;53.400;12.486;2022-09-17T01:13:38;14.20;;;5.05;;
13244;SDS011;6689;53.400;12.486;2022-09-17T01:16:22;18.60;;;4.88;;
13244;SDS011;6689;53.400;12.486;2022-09-17T01:19:01;15.20;;;4.07;;
13244;SDS011;6689;53.400;12.486;2022-09-17T01:21:50;10.75;;;4.70;;
13244;SDS011;6689;53.400;12.486;2022-09-17T01:33:40;14.53;;;4.67;;
13244;SDS011;6689;53.400;12.486;2022-09-17T01:36:17;14.65;;;4.65;;
13244;SDS011;6689;53.400;12.486;2022-09-17T01:38:53;23.77;;;5.38;;
13244;SDS011;6689;53.400;12.486;2022-09-17T01:41:39;14.95;;;4.88;;
13244;SDS011;6689;53.400;12.486;2022-09-17T01:44:14;19.17;;;4.90;;
13244;SDS011;6689;53.400;12.486;2022-09-17T01:46:49;18.17;;;4.80;;
13244;SDS011;6689;53.400;12.486;2022-09-17T01:49:23;9.63;;;4.28;;
13244;SDS011;6689;53.400;12.486;2022-09-17T01:51:52;15.48;;;4.80;;
13244;SDS011;6689;53.400;12.486;2022-09-17T01:54:21;22.48;;;4.45;;
13244;SDS011;6689;53.400;12.486;2022-09-17T01:56:54;15.77;;;5.28;;
13244;SDS011;6689;53.400;12.486;2022-09-17T01:59:26;11.43;;;5.10;;
13244;SDS011;6689;53.400;12.486;2022-09-17T02:01:58;14.98;;;4.53;;
13244;SDS011;6689;53.400;12.486;2022-09-17T02:04:35;13.73;;;4.83;;
13244;SDS011;6689;53.400;12.486;2022-09-17T02:07:07;12.88;;;5.05;;
13244;SDS011;6689;53.400;12.486;2022-09-17T02:09:39;17.95;;;5.05;;
13244;SDS011;6689;53.400;12.486;2022-09-17T02:12:09;12.93;;;4.93;;
13244;SDS011;6689;53.400;12.486;2022-09-17T02:14:43;12.02;;;4.07;;
13244;SDS011;6689;53.400;12.486;2022-09-17T02:17:15;16.77;;;4.20;;
13244;SDS011;6689;53.400;12.486;2022-09-17T02:19:54;17.15;;;5.00;;
13244;SDS011;6689;53.400;12.486;2022-09-17T02:22:24;13.98;;;3.88;;
13244;SDS011;6689;53.400;12.486;2022-09-17T02:25:00;12.80;;;4.43;;
13244;SDS011;6689;53.400;12.486;2022-09-17T02:27:44;17.00;;;4.55;;
13244;SDS011;6689;53.400;12.486;2022-09-17T02:30:17;12.33;;;4.60;;
13244;SDS011;6689;53.400;12.486;2022-09-17T02:32:45;14.98;;;4.07;;
13244;SDS011;6689;53.400;12.486;2022-09-17T02:35:14;13.43;;;4.78;;
13244;SDS011;6689;53.400;12.486;2022-09-17T02:37:42;16.45;;;4.72;;
13244;SDS011;6689;53.400;12.486;2022-09-17T02:40:13;13.32;;;4.63;;
13244;SDS011;6689;53.400;12.486;2022-09-17T02:42:49;15.73;;;4.32;;
13244;SDS011;6689;53.400;12.486;2022-09-17T02:45:27;15.50;;;4.18;;
13244;SDS011;6689;53.400;12.486;2022-09-17T02:48:17;21.50;;;4.10;;
13244;SDS011;6689;53.400;12.486;2022-09-17T02:53:48;17.58;;;4.68;;
13244;SDS011;6689;53.400;12.486;2022-09-17T02:56:26;15.73;;;4.35;;
13244;SDS011;6689;53.400;12.486;2022-09-17T02:59:07;18.15;;;4.60;;
13244;SDS011;6689;53.400;12.486;2022-09-17T03:01:44;20.40;;;5.03;;
13244;SDS011;6689;53.400;12.486;2022-09-17T03:04:19;15.68;;;5.88;;
13244;SDS011;6689;53.400;12.486;2022-09-17T03:06:50;11.18;;;3.58;;
13244;SDS011;6689;53.400;12.486;2022-09-17T03:09:20;12.15;;;3.85;;
13244;SDS011;6689;53.400;12.486;2022-09-17T03:11:49;13.82;;;4.38;;
13244;SDS011;6689;53.400;12.486;2022-09-17T03:14:16;14.82;;;3.53;;
13244;SDS011;6689;53.400;12.486;2022-09-17T03:16:45;10.50;;;3.10;;
13244;SDS011;6689;53.400;12.486;2022-09-17T03:19:13;12.30;;;3.72;;
13244;SDS011;6689;53.400;12.486;2022-09-17T03:21:40;14.18;;;3.88;;
13244;SDS011;6689;53.400;12.486;2022-09-17T03:24:09;20.42;;;5.22;;
13244;SDS011;6689;53.400;12.486;2022-09-17T03:26:37;17.83;;;4.38;;
13244;SDS011;6689;53.400;12.486;2022-09-17T03:29:04;21.42;;;4.65;;
13244;SDS011;6689;53.400;12.486;2022-09-17T03:31:32;21.25;;;5.30;;
13244;SDS011;6689;53.400;12.486;2022-09-17T03:34:00;24.08;;;4.28;;
13244;SDS011;6689;53.400;12.486;2022-09-17T03:36:31;17.33;;;4.28;;
13244;SDS011;6689;53.400;12.486;2022-09-17T03:38:59;30.73;;;4.75;;
13244;SDS011;6689;53.400;12.486;2022-09-17T03:41:28;22.88;;;4.35;;
13244;SDS011;6689;53.400;12.486;2022-09-17T03:43:55;18.70;;;4.47;;
13244;SDS011;6689;53.400;12.486;2022-09-17T03:46:24;19.77;;;4.07;;
13244;SDS011;6689;53.400;12.486;2022-09-17T03:48:53;10.38;;;3.92;;
13244;SDS011;6689;53.400;12.486;2022-09-17T03:51:20;17.95;;;4.28;;
13244;SDS011;6689;53.400;12.486;2022-09-17T03:53:48;18.63;;;4.20;;
13244;SDS011;6689;53.400;12.486;2022-09-17T03:56:15;17.27;;;3.67;;
13244;SDS011;6689;53.400;12.486;2022-09-17T03:58:46;18.85;;;4.45;;
13244;SDS011;6689;53.400;12.486;2022-09-17T04:01:15;20.63;;;3.97;;
13244;SDS011;6689;53.400;12.486;2022-09-17T04:03:44;19.00;;;4.30;;
13244;SDS011;6689;53.400;12.486;2022-09-17T04:06:12;17.70;;;4.28;;
13244;SDS011;6689;53.400;12.486;2022-09-17T04:08:40;16.85;;;4.20;;
13244;SDS011;6689;53.400;12.486;2022-09-17T04:11:08;21.35;;;4.40;;
13244;SDS011;6689;53.400;12.486;2022-09-17T04:13:39;17.80;;;4.10;;
13244;SDS011;6689;53.400;12.486;2022-09-17T04:16:07;17.90;;;3.97;;
13244;SDS011;6689;53.400;12.486;2022-09-17T04:18:36;23.60;;;4.85;;
13244;SDS011;6689;53.400;12.486;2022-09-17T04:21:05;19.33;;;3.78;;
13244;SDS011;6689;53.400;12.486;2022-09-17T04:23:34;27.33;;;4.40;;
13244;SDS011;6689;53.400;12.486;2022-09-17T04:26:01;20.58;;;5.28;;
13244;SDS011;6689;53.400;12.486;2022-09-17T04:28:29;20.92;;;4.95;;
13244;SDS011;6689;53.400;12.486;2022-09-17T04:30:57;17.00;;;4.15;;
13244;SDS011;6689;53.400;12.486;2022-09-17T04:33:26;22.50;;;4.35;;
13244;SDS011;6689;53.400;12.486;2022-09-17T04:35:55;28.60;;;5.53;;
13244;SDS011;6689;53.400;12.486;2022-09-17T04:38:22;21.95;;;4.80;;
13244;SDS011;6689;53.400;12.486;2022-09-17T04:40:50;23.55;;;6.32;;
13244;SDS011;6689;53.400;12.486;2022-09-17T04:43:19;27.50;;;6.03;;
13244;SDS011;6689;53.400;12.486;2022-09-17T04:45:46;35.85;;;7.28;;
13244;SDS011;6689;53.400;12.486;2022-09-17T04:48:14;22.55;;;5.05;;
13244;SDS011;6689;53.400;12.486;2022-09-17T04:50:44;30.65;;;6.60;;
13244;SDS011;6689;53.400;12.486;2022-09-17T04:53:11;30.27;;;7.57;;
13244;SDS011;6689;53.400;12.486;2022-09-17T04:55:39;35.97;;;7.00;;
13244;SDS011;6689;53.400;12.486;2022-09-17T04:58:10;31.88;;;6.57;;
13244;SDS011;6689;53.400;12.486;2022-09-17T05:00:37;34.10;;;7.85;;
13244;SDS011;6689;53.400;12.486;2022-09-17T05:03:05;40.63;;;6.82;;
13244;SDS011;6689;53.400;12.486;2022-09-17T05:05:35;28.10;;;5.22;;
13244;SDS011;6689;53.400;12.486;2022-09-17T05:08:04;30.55;;;6.07;;
13244;SDS011;6689;53.400;12.486;2022-09-17T05:10:32;33.83;;;5.40;;
13244;SDS011;6689;53.400;12.486;2022-09-17T05:13:01;33.08;;;6.13;;
13244;SDS011;6689;53.400;12.486;2022-09-17T05:15:30;31.60;;;6.30;;
13244;SDS011;6689;53.400;12.486;2022-09-17T05:17:58;38.20;;;5.35;;
13244;SDS011;6689;53.400;12.486;2022-09-17T05:20:26;30.20;;;5.32;;
13244;SDS011;6689;53.400;12.486;2022-09-17T05:22:55;24.08;;;5.90;;
13244;SDS011;6689;53.400;12.486;2022-09-17T05:25:24;24.83;;;5.25;;
13244;SDS011;6689;53.400;12.486;2022-09-17T05:27:51;25.27;;;5.28;;
13244;SDS011;6689;53.400;12.486;2022-09-17T05:30:25;27.77;;;6.15;;
13244;SDS011;6689;53.400;12.486;2022-09-17T05:32:57;29.77;;;7.15;;
13244;SDS011;6689;53.400;12.486;2022-09-17T05:35:27;23.40;;;4.73;;
13244;SDS011;6689;53.400;12.486;2022-09-17T05:37:56;24.15;;;4.57;;
13244;SDS011;6689;53.400;12.486;2022-09-17T05:40:26;35.22;;;6.38;;
13244;SDS011;6689;53.400;12.486;2022-09-17T05:42:56;26.90;;;5.68;;
13244;SDS011;6689;53.400;12.486;2022-09-17T05:45:26;22.15;;;4.80;;
13244;SDS011;6689;53.400;12.486;2022-09-17T05:47:55;20.90;;;5.22;;
13244;SDS011;6689;53.400;12.486;2022-09-17T05:50:22;24.30;;;5.65;;
13244;SDS011;6689;53.400;12.486;2022-09-17T05:52:55;19.08;;;4.25;;
13244;SDS011;6689;53.400;12.486;2022-09-17T05:55:22;21.63;;;4.47;;
13244;SDS011;6689;53.400;12.486;2022-09-17T05:57:54;24.55;;;5.28;;
13244;SDS011;6689;53.400;12.486;2022-09-17T06:00:21;23.38;;;5.40;;
13244;SDS011;6689;53.400;12.486;2022-09-17T06:02:53;31.13;;;5.35;;
13244;SDS011;6689;53.400;12.486;2022-09-17T06:05:22;23.38;;;5.97;;
13244;SDS011;6689;53.400;12.486;2022-09-17T06:07:52;24.65;;;4.97;;
13244;SDS011;6689;53.400;12.486;2022-09-17T06:10:21;27.92;;;6.65;;
13244;SDS011;6689;53.400;12.486;2022-09-17T06:12:48;28.27;;;6.20;;
13244;SDS011;6689;53.400;12.486;2022-09-17T06:15:24;21.17;;;5.00;;
13244;SDS011;6689;53.400;12.486;2022-09-17T06:17:56;28.40;;;4.93;;
13244;SDS011;6689;53.400;12.486;2022-09-17T06:20:32;23.17;;;4.95;;
13244;SDS011;6689;53.400;12.486;2022-09-17T06:23:02;20.10;;;4.68;;
13244;SDS011;6689;53.400;12.486;2022-09-17T06:25:30;23.52;;;5.50;;
13244;SDS011;6689;53.400;12.486;2022-09-17T06:27:59;23.23;;;4.85;;
13244;SDS011;6689;53.400;12.486;2022-09-17T06:30:27;21.52;;;3.70;;
13244;SDS011;6689;53.400;12.486;2022-09-17T06:32:56;21.02;;;5.03;;
13244;SDS011;6689;53.400;12.486;2022-09-17T06:35:26;23.50;;;5.25;;
13244;SDS011;6689;53.400;12.486;2022-09-17T06:37:53;25.05;;;5.47;;
13244;SDS011;6689;53.400;12.486;2022-09-17T06:40:31;22.50;;;6.00;;
13244;SDS011;6689;53.400;12.486;2022-09-17T06:43:00;24.52;;;4.63;;
13244;SDS011;6689;53.400;12.486;2022-09-17T06:45:27;20.50;;;5.43;;
13244;SDS011;6689;53.400;12.486;2022-09-17T06:47:56;24.38;;;5.20;;
13244;SDS011;6689;53.400;12.486;2022-09-17T06:50:23;21.30;;;5.22;;
13244;SDS011;6689;53.400;12.486;2022-09-17T06:52:53;20.02;;;4.97;;
13244;SDS011;6689;53.400;12.486;2022-09-17T06:55:21;21.40;;;5.30;;
13244;SDS011;6689;53.400;12.486;2022-09-17T06:57:48;23.30;;;5.70;;
13244;SDS011;6689;53.400;12.486;2022-09-17T07:00:17;20.38;;;5.25;;
13244;SDS011;6689;53.400;12.486;2022-09-17T07:02:53;22.48;;;5.20;;
13244;SDS011;6689;53.400;12.486;2022-09-17T07:05:22;17.70;;;4.95;;
13244;SDS011;6689;53.400;12.486;2022-09-17T07:07:50;24.95;;;5.82;;
13244;SDS011;6689;53.400;12.486;2022-09-17T07:10:18;28.65;;;5.95;;
13244;SDS011;6689;53.400;12.486;2022-09-17T07:12:47;22.77;;;5.45;;
13244;SDS011;6689;53.400;12.486;2022-09-17T07:15:18;23.52;;;6.38;;
13244;SDS011;6689;53.400;12.486;2022-09-17T07:17:48;19.23;;;5.43;;
13244;SDS011;6689;53.400;12.486;2022-09-17T07:20:16;20.92;;;5.03;;
13244;SDS011;6689;53.400;12.486;2022-09-17T07:22:53;26.83;;;5.90;;
13244;SDS011;6689;53.400;12.486;2022-09-17T07:25:22;23.13;;;5.85;;
13244;SDS011;6689;53.400;12.486;2022-09-17T07:27:53;28.90;;;5.30;;
13244;SDS011;6689;53.400;12.486;2022-09-17T07:30:22;20.70;;;5.40;;
13244;SDS011;6689;53.400;12.486;2022-09-17T07:32:53;21.83;;;6.10;;
13244;SDS011;6689;53.400;12.486;2022-09-17T07:35:23;18.63;;;4.88;;
13244;SDS011;6689;53.400;12.486;2022-09-17T07:37:53;16.90;;;5.20;;
13244;SDS011;6689;53.400;12.486;2022-09-17T07:40:25;17.15;;;4.80;;
13244;SDS011;6689;53.400;12.486;2022-09-17T07:42:56;18.23;;;4.40;;
13244;SDS011;6689;53.400;12.486;2022-09-17T07:45:26;18.77;;;5.28;;
13244;SDS011;6689;53.400;12.486;2022-09-17T07:47:54;14.27;;;3.70;;
13244;SDS011;6689;53.400;12.486;2022-09-17T07:50:23;14.10;;;3.90;;
13244;SDS011;6689;53.400;12.486;2022-09-17T07:52:51;19.35;;;4.75;;
13244;SDS011;6689;53.400;12.486;2022-09-17T07:55:20;20.63;;;4.05;;
13244;SDS011;6689;53.400;12.486;2022-09-17T07:57:52;14.25;;;3.58;;
13244;SDS011;6689;53.400;12.486;2022-09-17T08:00:19;18.20;;;3.83;;
13244;SDS011;6689;53.400;12.486;2022-09-17T08:02:53;15.18;;;3.78;;
13244;SDS011;6689;53.400;12.486;2022-09-17T08:05:21;20.25;;;4.55;;
13244;SDS011;6689;53.400;12.486;2022-09-17T08:07:48;19.48;;;3.97;;
13244;SDS011;6689;53.400;12.486;2022-09-17T08:10:19;18.65;;;3.80;;
13244;SDS011;6689;53.400;12.486;2022-09-17T08:12:53;17.85;;;4.32;;
13244;SDS011;6689;53.400;12.486;2022-09-17T08:15:23;23.98;;;4.35;;
13244;SDS011;6689;53.400;12.486;2022-09-17T08:17:54;17.92;;;4.32;;
13244;SDS011;6689;53.400;12.486;2022-09-17T08:20:23;18.20;;;4.28;;
13244;SDS011;6689;53.400;12.486;2022-09-17T08:22:56;19.63;;;3.75;;
13244;SDS011;6689;53.400;12.486;2022-09-17T08:25:24;16.65;;;4.72;;
13244;SDS011;6689;53.400;12.486;2022-09-17T08:27:54;16.33;;;3.75;;
13244;SDS011;6689;53.400;12.486;2022-09-17T08:30:22;17.38;;;3.72;;
13244;SDS011;6689;53.400;12.486;2022-09-17T08:32:49;20.63;;;4.40;;
13244;SDS011;6689;53.400;12.486;2022-09-17T08:35:19;15.85;;;3.97;;
13244;SDS011;6689;53.400;12.486;2022-09-17T08:37:48;17.17;;;4.10;;
13244;SDS011;6689;53.400;12.486;2022-09-17T08:40:17;14.55;;;3.72;;
13244;SDS011;6689;53.400;12.486;2022-09-17T08:42:48;12.68;;;3.20;;
13244;SDS011;6689;53.400;12.486;2022-09-17T08:45:24;12.48;;;3.03;;
13244;SDS011;6689;53.400;12.486;2022-09-17T08:47:53;11.65;;;3.45;;
13244;SDS011;6689;53.400;12.486;2022-09-17T08:50:31;17.10;;;3.38;;
13244;SDS011;6689;53.400;12.486;2022-09-17T08:56:09;13.70;;;3.53;;
13244;SDS011;6689;53.400;12.486;2022-09-17T08:58:51;13.55;;;3.03;;
13244;SDS011;6689;53.400;12.486;2022-09-17T09:01:39;13.27;;;4.20;;
13244;SDS011;6689;53.400;12.486;2022-09-17T09:04:23;13.27;;;3.10;;
13244;SDS011;6689;53.400;12.486;2022-09-17T09:07:05;19.23;;;3.25;;
13244;SDS011;6689;53.400;12.486;2022-09-17T09:09:36;16.20;;;4.18;;
13244;SDS011;6689;53.400;12.486;2022-09-17T09:12:09;12.90;;;3.63;;
13244;SDS011;6689;53.400;12.486;2022-09-17T09:14:45;20.65;;;4.65;;
13244;SDS011;6689;53.400;12.486;2022-09-17T09:17:17;13.88;;;3.10;;
13244;SDS011;6689;53.400;12.486;2022-09-17T09:19:48;13.50;;;2.80;;
13244;SDS011;6689;53.400;12.486;2022-09-17T09:22:28;15.10;;;3.88;;
13244;SDS011;6689;53.400;12.486;2022-09-17T09:25:20;11.48;;;2.95;;
13244;SDS011;6689;53.400;12.486;2022-09-17T09:28:03;18.08;;;3.60;;
13244;SDS011;6689;53.400;12.486;2022-09-17T09:30:42;12.52;;;3.70;;
13244;SDS011;6689;53.400;12.486;2022-09-17T09:33:20;16.92;;;3.50;;
13244;SDS011;6689;53.400;12.486;2022-09-17T09:35:54;13.50;;;3.67;;
13244;SDS011;6689;53.400;12.486;2022-09-17T09:38:27;13.25;;;2.90;;
13244;SDS011;6689;53.400;12.486;2022-09-17T09:41:00;13.48;;;3.58;;
13244;SDS011;6689;53.400;12.486;2022-09-17T09:43:35;18.77;;;4.00;;
13244;SDS011;6689;53.400;12.486;2022-09-17T09:46:13;13.73;;;4.05;;
13244;SDS011;6689;53.400;12.486;2022-09-17T09:48:57;14.82;;;3.10;;
13244;SDS011;6689;53.400;12.486;2022-09-17T09:51:41;10.43;;;3.10;;
13244;SDS011;6689;53.400;12.486;2022-09-17T09:54:25;12.98;;;3.13;;
13244;SDS011;6689;53.400;12.486;2022-09-17T09:57:03;10.68;;;3.40;;
13244;SDS011;6689;53.400;12.486;2022-09-17T09:59:40;17.80;;;4.30;;
13244;SDS011;6689;53.400;12.486;2022-09-17T10:02:08;14.93;;;3.25;;
13244;SDS011;6689;53.400;12.486;2022-09-17T10:04:35;11.68;;;3.92;;
13244;SDS011;6689;53.400;12.486;2022-09-17T10:07:04;14.57;;;3.38;;
13244;SDS011;6689;53.400;12.486;2022-09-17T10:09:38;16.90;;;3.20;;
13244;SDS011;6689;53.400;12.486;2022-09-17T10:12:14;10.68;;;3.63;;
13244;SDS011;6689;53.400;12.486;2022-09-17T10:14:47;13.15;;;3.67;;
13244;SDS011;6689;53.400;12.486;2022-09-17T10:17:16;16.17;;;3.65;;
13244;SDS011;6689;53.400;12.486;2022-09-17T10:22:43;17.63;;;3.67;;
13244;SDS011;6689;53.400;12.486;2022-09-17T10:25:22;10.48;;;2.80;;
13244;SDS011;6689;53.400;12.486;2022-09-17T10:27:54;11.07;;;3.33;;
13244;SDS011;6689;53.400;12.486;2022-09-17T10:30:23;19.17;;;3.85;;
13244;SDS011;6689;53.400;12.486;2022-09-17T10:33:09;15.15;;;3.15;;
13244;SDS011;6689;53.400;12.486;2022-09-17T10:35:56;11.98;;;2.85;;
13244;SDS011;6689;53.400;12.486;2022-09-17T10:38:29;14.18;;;3.00;;
13244;SDS011;6689;53.400;12.486;2022-09-17T10:43:55;17.90;;;3.08;;
13244;SDS011;6689;53.400;12.486;2022-09-17T10:46:25;8.40;;;2.90;;
13244;SDS011;6689;53.400;12.486;2022-09-17T10:49:04;12.73;;;3.08;;
13244;SDS011;6689;53.400;12.486;2022-09-17T10:51:36;11.73;;;2.78;;
13244;SDS011;6689;53.400;12.486;2022-09-17T10:54:07;10.55;;;2.10;;
13244;SDS011;6689;53.400;12.486;2022-09-17T10:56:56;10.77;;;2.25;;
13244;SDS011;6689;53.400;12.486;2022-09-17T11:02:39;8.52;;;2.60;;
13244;SDS011;6689;53.400;12.486;2022-09-17T11:08:24;7.70;;;2.38;;
13244;SDS011;6689;53.400;12.486;2022-09-17T11:11:02;7.25;;;1.92;;
13244;SDS011;6689;53.400;12.486;2022-09-17T11:13:40;6.80;;;1.88;;
13244;SDS011;6689;53.400;12.486;2022-09-17T11:16:22;12.48;;;1.98;;
13244;SDS011;6689;53.400;12.486;2022-09-17T11:19:02;7.28;;;1.38;;
13244;SDS011;6689;53.400;12.486;2022-09-17T11:21:44;4.63;;;1.67;;
13244;SDS011;6689;53.400;12.486;2022-09-17T11:24:23;5.00;;;1.63;;
13244;SDS011;6689;53.400;12.486;2022-09-17T11:27:17;3.60;;;1.67;;
13244;SDS011;6689;53.400;12.486;2022-09-17T11:30:00;8.43;;;1.92;;
13244;SDS011;6689;53.400;12.486;2022-09-17T11:32:47;6.30;;;1.35;;
13244;SDS011;6689;53.400;12.486;2022-09-17T11:35:39;2.47;;;1.00;;
13244;SDS011;6689;53.400;12.486;2022-09-17T11:38:13;6.72;;;1.42;;
13244;SDS011;6689;53.400;12.486;2022-09-17T11:40:48;3.90;;;1.55;;
13244;SDS011;6689;53.400;12.486;2022-09-17T11:43:21;3.97;;;1.30;;
13244;SDS011;6689;53.400;12.486;2022-09-17T11:45:59;5.05;;;1.10;;
13244;SDS011;6689;53.400;12.486;2022-09-17T11:48:36;6.80;;;1.30;;
13244;SDS011;6689;53.400;12.486;2022-09-17T11:51:17;3.78;;;1.25;;
13244;SDS011;6689;53.400;12.486;2022-09-17T11:53:51;4.80;;;1.33;;
13244;SDS011;6689;53.400;12.486;2022-09-17T11:56:32;3.60;;;1.15;;
13244;SDS011;6689;53.400;12.486;2022-09-17T11:59:09;3.15;;;1.08;;
13244;SDS011;6689;53.400;12.486;2022-09-17T12:01:47;2.42;;;1.00;;
13244;SDS011;6689;53.400;12.486;2022-09-17T12:04:30;4.57;;;1.40;;
13244;SDS011;6689;53.400;12.486;2022-09-17T12:07:07;4.00;;;1.20;;
13244;SDS011;6689;53.400;12.486;2022-09-17T12:09:43;3.65;;;1.42;;
13244;SDS011;6689;53.400;12.486;2022-09-17T12:12:15;4.75;;;1.38;;
13244;SDS011;6689;53.400;12.486;2022-09-17T12:14:46;7.43;;;1.35;;
13244;SDS011;6689;53.400;12.486;2022-09-17T12:17:20;4.70;;;1.30;;
13244;SDS011;6689;53.400;12.486;2022-09-17T12:19:51;2.75;;;1.15;;
13244;SDS011;6689;53.400;12.486;2022-09-17T12:22:22;6.50;;;2.15;;
13244;SDS011;6689;53.400;12.486;2022-09-17T12:24:53;4.63;;;1.42;;
13244;SDS011;6689;53.400;12.486;2022-09-17T12:27:31;4.30;;;1.45;;
13244;SDS011;6689;53.400;12.486;2022-09-17T12:30:07;4.70;;;1.30;;
13244;SDS011;6689;53.400;12.486;2022-09-17T12:32:58;6.22;;;1.50;;
13244;SDS011;6689;53.400;12.486;2022-09-17T12:35:41;4.20;;;1.20;;
13244;SDS011;6689;53.400;12.486;2022-09-17T12:38:39;3.90;;;0.95;;
13244;SDS011;6689;53.400;12.486;2022-09-17T12:41:26;5.22;;;1.20;;
13244;SDS011;6689;53.400;12.486;2022-09-17T12:44:04;3.03;;;0.90;;
13244;SDS011;6689;53.400;12.486;2022-09-17T12:46:48;4.07;;;1.43;;
13244;SDS011;6689;53.400;12.486;2022-09-17T12:52:30;6.65;;;1.45;;
13244;SDS011;6689;53.400;12.486;2022-09-17T12:55:19;4.95;;;1.10;;
13244;SDS011;6689;53.400;12.486;2022-09-17T12:57:59;6.40;;;1.65;;
13244;SDS011;6689;53.400;12.486;2022-09-17T13:00:36;5.03;;;1.50;;
13244;SDS011;6689;53.400;12.486;2022-09-17T13:03:09;4.35;;;0.95;;
13244;SDS011;6689;53.400;12.486;2022-09-17T13:05:55;2.40;;;1.00;;
13244;SDS011;6689;53.400;12.486;2022-09-17T13:08:59;4.32;;;1.00;;
13244;SDS011;6689;53.400;12.486;2022-09-17T13:11:50;6.20;;;1.20;;
13244;SDS011;6689;53.400;12.486;2022-09-17T13:14:32;3.47;;;0.82;;
13244;SDS011;6689;53.400;12.486;2022-09-17T13:17:23;1.45;;;0.60;;
13244;SDS011;6689;53.400;12.486;2022-09-17T13:20:10;3.63;;;1.15;;
13244;SDS011;6689;53.400;12.486;2022-09-17T13:22:44;2.83;;;0.90;;
13244;SDS011;6689;53.400;12.486;2022-09-17T13:25:18;3.03;;;1.17;;
13244;SDS011;6689;53.400;12.486;2022-09-17T13:27:50;3.08;;;1.27;;
13244;SDS011;6689;53.400;12.486;2022-09-17T13:39:36;4.57;;;0.88;;
13244;SDS011;6689;53.400;12.486;2022-09-17T13:42:09;3.80;;;0.90;;
13244;SDS011;6689;53.400;12.486;2022-09-17T13:44:42;3.03;;;0.70;;
13244;SDS011;6689;53.400;12.486;2022-09-17T13:47:23;2.65;;;0.73;;
13244;SDS011;6689;53.400;12.486;2022-09-17T13:49:54;2.75;;;0.70;;
13244;SDS011;6689;53.400;12.486;2022-09-17T13:52:39;1.58;;;0.73;;
13244;SDS011;6689;53.400;12.486;2022-09-17T13:58:02;3.88;;;0.93;;
13244;SDS011;6689;53.400;12.486;2022-09-17T14:00:46;2.88;;;0.82;;
13244;SDS011;6689;53.400;12.486;2022-09-17T14:09:34;0.85;;;0.52;;
13244;SDS011;6689;53.400;12.486;2022-09-17T14:15:34;5.95;;;0.85;;
13244;SDS011;6689;53.400;12.486;2022-09-17T14:21:13;2.10;;;0.70;;
13244;SDS011;6689;53.400;12.486;2022-09-17T14:23:52;1.30;;;0.40;;
13244;SDS011;6689;53.400;12.486;2022-09-17T14:26:30;4.68;;;0.60;;
13244;SDS011;6689;53.400;12.486;2022-09-17T14:29:22;1.80;;;0.50;;
13244;SDS011;6689;53.400;12.486;2022-09-17T14:32:16;1.38;;;0.50;;
13244;SDS011;6689;53.400;12.486;2022-09-17T14:34:47;1.33;;;0.35;;
13244;SDS011;6689;53.400;12.486;2022-09-17T14:37:18;2.53;;;0.70;;
13244;SDS011;6689;53.400;12.486;2022-09-17T14:39:48;3.40;;;0.50;;
13244;SDS011;6689;53.400;12.486;2022-09-17T14:42:18;1.77;;;0.70;;
13244;SDS011;6689;53.400;12.486;2022-09-17T14:44:53;2.63;;;0.85;;
13244;SDS011;6689;53.400;12.486;2022-09-17T14:47:27;1.08;;;0.50;;
13244;SDS011;6689;53.400;12.486;2022-09-17T14:49:54;2.28;;;0.98;;
13244;SDS011;6689;53.400;12.486;2022-09-17T14:52:47;1.77;;;0.55;;
13244;SDS011;6689;53.400;12.486;2022-09-17T14:55:19;3.20;;;0.60;;
13244;SDS011;6689;53.400;12.486;2022-09-17T14:57:50;1.50;;;0.70;;
13244;SDS011;6689;53.400;12.486;2022-09-17T15:00:23;0.70;;;0.60;;
13244;SDS011;6689;53.400;12.486;2022-09-17T15:02:57;3.22;;;0.80;;
13244;SDS011;6689;53.400;12.486;2022-09-17T15:05:26;1.23;;;0.30;;
13244;SDS011;6689;53.400;12.486;2022-09-17T15:08:03;2.05;;;0.60;;
13244;SDS011;6689;53.400;12.486;2022-09-17T15:10:33;2.58;;;0.70;;
13244;SDS011;6689;53.400;12.486;2022-09-17T15:13:13;3.60;;;0.60;;
13244;SDS011;6689;53.400;12.486;2022-09-17T15:15:53;2.05;;;0.77;;
13244;SDS011;6689;53.400;12.486;2022-09-17T15:18:36;1.75;;;0.55;;
13244;SDS011;6689;53.400;12.486;2022-09-17T15:21:17;1.60;;;0.40;;
13244;SDS011;6689;53.400;12.486;2022-09-17T15:23:54;4.28;;;0.70;;
13244;SDS011;6689;53.400;12.486;2022-09-17T15:26:26;1.10;;;0.50;;
13244;SDS011;6689;53.400;12.486;2022-09-17T15:29:01;2.33;;;0.73;;
13244;SDS011;6689;53.400;12.486;2022-09-17T15:31:33;3.72;;;0.63;;
13244;SDS011;6689;53.400;12.486;2022-09-17T15:34:02;2.08;;;0.60;;
13244;SDS011;6689;53.400;12.486;2022-09-17T15:36:31;1.17;;;0.38;;
13244;SDS011;6689;53.400;12.486;2022-09-17T15:38:59;2.38;;;0.50;;
13244;SDS011;6689;53.400;12.486;2022-09-17T15:41:53;0.98;;;0.38;;
13244;SDS011;6689;53.400;12.486;2022-09-17T15:44:23;2.30;;;0.80;;
13244;SDS011;6689;53.400;12.486;2022-09-17T15:46:53;1.77;;;1.02;;
13244;SDS011;6689;53.400;12.486;2022-09-17T15:49:29;3.00;;;0.80;;
13244;SDS011;6689;53.400;12.486;2022-09-17T15:57:13;1.73;;;0.50;;
13244;SDS011;6689;53.400;12.486;2022-09-17T15:59:43;1.90;;;0.70;;
13244;SDS011;6689;53.400;12.486;2022-09-17T16:02:23;2.03;;;0.70;;
13244;SDS011;6689;53.400;12.486;2022-09-17T16:07:58;1.95;;;0.60;;
13244;SDS011;6689;53.400;12.486;2022-09-17T16:10:47;1.70;;;0.60;;
13244;SDS011;6689;53.400;12.486;2022-09-17T16:13:19;1.92;;;0.70;;
13244;SDS011;6689;53.400;12.486;2022-09-17T16:15:49;3.13;;;0.98;;
13244;SDS011;6689;53.400;12.486;2022-09-17T16:18:17;2.70;;;0.80;;
13244;SDS011;6689;53.400;12.486;2022-09-17T16:20:47;4.20;;;0.90;;